CRF3 weather

Public forecast

Using degrees Celsius for public forecast. Weather courtesy of forecast.io.

Closest aviation weather report (METAR) to Edmonton / Villeneuve (Rose Field)

Closest report is Edmonton / Villeneuve Airport, 2.2 nm (4.2 km) NW. Retrieved 2020/08/09 08:00 UTC (34 minutes ago):

CZVL 090800Z AUTO 27010G15KT 9SM FEW075 OVC091 11/07 A2992 RMK SLP140 DENSITY ALT 2300FT

Closest aviation forecast (TAF) to Edmonton / Villeneuve (Rose Field)

Closest forecast is Edmonton / Villeneuve Airport, 2.2 nm (4.2 km) NW. Retrieved 2020/08/09 06:00 UTC (3 hours ago):

TAF CZVL 090542Z 0906/0918 28008KT P6SM SCT040 BKN080 FM091200 28012G22KT P6SM SCT060 FM091600 28020G30KT P6SM FEW060 RMK FCST BASED ON AUTO OBS NXT FCST BY 091200Z